Time;durP1;ratioP1;P1;durP2;ratioP2;P2;SDS_P1;SDS_P2;PMS_P1;PMS_P2;Temp;Humidity;BMP_temperature;BMP_pressure;BME280_temperature;BME280_humidity;BME280_pressure;Samples;Min_cycle;Max_cycle;Signal;HPM_P1;HPM_P2
2022/06/17 00:01:41;;;;;;;2.95;1.20;;;;;;;15.80;54.03;101504.59;4967145;28;20050;-78
2022/06/17 00:04:09;;;;;;;3.47;1.10;;;;;;;15.78;53.86;101509.19;4958328;28;20078;-78
2022/06/17 00:06:40;;;;;;;2.60;1.27;;;;;;;15.75;54.21;101509.38;4938884;28;20070;-78
2022/06/17 00:09:10;;;;;;;3.17;1.35;;;;;;;15.74;54.27;101505.03;4959572;28;20055;-79
2022/06/17 00:11:38;;;;;;;3.08;1.50;;;;;;;15.73;54.19;101508.63;4954783;28;20053;-78
2022/06/17 00:14:11;;;;;;;6.65;1.40;;;;;;;15.70;54.63;101505.22;4936686;28;20047;-78
2022/06/17 00:16:39;;;;;;;3.47;1.65;;;;;;;15.68;54.80;101516.91;4939999;28;20059;-79
2022/06/17 00:19:06;;;;;;;4.22;1.20;;;;;;;15.66;54.83;101521.44;4958445;28;20061;-80
2022/06/17 00:21:36;;;;;;;1.90;1.23;;;;;;;15.64;54.69;101518.06;4978824;28;20046;-80
2022/06/17 00:24:16;;;;;;;2.63;1.42;;;;;;;15.64;54.93;101531.31;4962168;28;20530;-79
2022/06/17 00:26:44;;;;;;;3.30;1.42;;;;;;;15.64;55.05;101526.88;4976422;28;20038;-78
2022/06/17 00:29:16;;;;;;;5.60;1.40;;;;;;;15.66;54.89;101526.75;4986014;28;20165;-79
2022/06/17 00:31:43;;;;;;;2.55;1.10;;;;;;;15.66;54.82;101530.25;4950807;28;20053;-79
2022/06/17 00:34:11;;;;;;;4.38;1.45;;;;;;;15.67;54.97;101531.13;4971579;28;20078;-79
2022/06/17 00:36:40;;;;;;;4.93;1.48;;;;;;;15.67;55.26;101528.47;4972500;28;20077;-79
2022/06/17 00:39:18;;;;;;;3.92;1.83;;;;;;;15.67;55.01;101536.44;4955229;28;20110;-79
2022/06/17 00:41:47;;;;;;;1.63;1.08;;;;;;;15.65;55.00;101538.34;4940699;28;20689;-79
2022/06/17 00:44:46;;;;;;;2.33;1.40;;;;;;;15.63;55.26;101538.41;4953312;28;20086;-79
2022/06/17 00:47:34;;;;;;;3.85;1.92;;;;;;;15.62;55.59;101539.34;4972587;28;20612;-78
2022/06/17 00:50:03;;;;;;;4.65;1.92;;;;;;;15.62;55.76;101543.81;4965248;28;20815;-78
2022/06/17 00:52:36;;;;;;;3.65;1.65;;;;;;;15.62;55.70;101539.34;4980124;28;20555;-79
2022/06/17 00:55:35;;;;;;;4.57;2.03;;;;;;;15.61;55.56;101544.75;4968446;28;20166;-78
2022/06/17 00:58:17;;;;;;;3.05;1.42;;;;;;;15.59;55.65;101552.84;4977252;28;20437;-78
2022/06/17 01:00:46;;;;;;;3.38;1.90;;;;;;;15.57;55.81;101549.41;4937578;28;20051;-80
2022/06/17 01:03:18;;;;;;;6.07;1.92;;;;;;;15.58;55.56;101544.94;4966560;28;20059;-78
2022/06/17 01:05:53;;;;;;;4.88;2.08;;;;;;;15.58;55.92;101551.13;4975035;28;20058;-81
2022/06/17 01:11:26;;;;;;;7.85;2.67;;;;;;;15.57;56.35;101549.41;4957256;28;20070;-79
2022/06/17 01:13:54;;;;;;;6.05;2.15;;;;;;;15.55;56.15;101548.66;4950268;28;20051;-78
2022/06/17 01:16:30;;;;;;;8.75;2.17;;;;;;;15.53;56.27;101547.06;4989971;28;20145;-79
2022/06/17 01:19:02;;;;;;;6.10;2.22;;;;;;;15.50;56.62;101550.78;4968626;28;20149;-80
2022/06/17 01:21:36;;;;;;;6.97;2.03;;;;;;;15.48;56.95;101550.00;4972970;28;20050;-78
2022/06/17 01:24:06;;;;;;;3.70;1.95;;;;;;;15.47;57.53;101550.97;4983404;28;20118;-78
2022/06/17 01:26:34;;;;;;;5.07;2.08;;;;;;;15.46;57.44;101559.88;4980656;28;20134;-79
2022/06/17 01:29:01;;;;;;;4.78;2.20;;;;;;;15.44;57.46;101562.66;4967889;28;20054;-79
2022/06/17 01:31:29;;;;;;;5.65;2.00;;;;;;;15.40;57.73;101562.91;4959389;28;20170;-78
2022/06/17 01:33:57;;;;;;;4.22;2.13;;;;;;;15.38;58.22;101557.72;4977300;28;20055;-79
2022/06/17 01:36:27;;;;;;;8.20;1.90;;;;;;;15.37;58.10;101558.66;4956206;28;20127;-80
2022/06/17 01:38:57;;;;;;;6.25;2.20;;;;;;;15.37;58.64;101555.16;4949182;28;20194;-79
2022/06/17 01:41:26;;;;;;;3.58;1.95;;;;;;;15.37;58.81;101552.50;4968251;28;20058;-80
2022/06/17 01:43:57;;;;;;;3.45;1.85;;;;;;;15.33;58.38;101553.66;4949461;28;20113;-78
2022/06/17 01:46:31;;;;;;;4.85;1.52;;;;;;;15.30;58.77;101559.16;4955655;28;20365;-78
2022/06/17 01:49:03;;;;;;;2.80;1.63;;;;;;;15.25;58.91;101559.44;4973400;28;20097;-79
2022/06/17 01:51:33;;;;;;;5.32;1.98;;;;;;;15.19;59.18;101558.03;4979924;28;20134;-79
2022/06/17 01:54:05;;;;;;;3.67;1.70;;;;;;;15.18;58.94;101556.34;4957293;28;20055;-79
2022/06/17 01:56:34;;;;;;;5.30;1.83;;;;;;;15.15;59.74;101551.22;4970844;28;20058;-79
2022/06/17 01:59:14;;;;;;;5.78;1.98;;;;;;;15.11;59.65;101552.38;4951267;28;20127;-80
2022/06/17 02:01:45;;;;;;;4.53;1.80;;;;;;;15.10;59.92;101561.28;4965022;28;20055;-78
2022/06/17 02:04:16;;;;;;;6.03;2.03;;;;;;;15.09;61.22;101553.44;4958568;28;20055;-79
2022/06/17 02:06:51;;;;;;;5.03;2.25;;;;;;;15.06;60.88;101565.06;4955843;28;20055;-79
2022/06/17 02:09:18;;;;;;;3.85;2.08;;;;;;;15.02;61.15;101563.56;4974436;28;20154;-80
2022/06/17 02:11:46;;;;;;;5.65;1.92;;;;;;;14.98;61.33;101567.34;4959503;28;20053;-78
2022/06/17 02:14:14;;;;;;;5.47;1.75;;;;;;;14.95;61.51;101567.56;4959055;28;20210;-79
2022/06/17 02:16:43;;;;;;;3.85;1.60;;;;;;;14.92;61.41;101570.38;4950658;28;20063;-78
2022/06/17 02:19:11;;;;;;;4.47;1.90;;;;;;;14.88;62.17;101568.88;4974775;28;20057;-79
2022/06/17 02:21:43;;;;;;;3.40;1.60;;;;;;;14.85;61.85;101564.59;4973349;28;20054;-79
2022/06/17 02:24:11;;;;;;;4.15;1.67;;;;;;;14.83;62.23;101574.47;4954977;28;20165;-79
2022/06/17 02:26:39;;;;;;;4.20;1.95;;;;;;;14.80;61.75;101573.78;4961979;28;20074;-78
2022/06/17 02:29:10;;;;;;;5.40;1.50;;;;;;;14.78;61.62;101573.88;4977674;28;20047;-78
2022/06/17 02:31:39;;;;;;;5.32;2.58;;;;;;;14.77;62.50;101571.31;4970714;28;20351;-80
2022/06/17 02:34:08;;;;;;;5.57;1.98;;;;;;;14.77;62.76;101569.53;4978812;28;20062;-79
2022/06/17 02:36:44;;;;;;;3.13;1.60;;;;;;;14.76;62.68;101569.63;4984243;28;20429;-80
2022/06/17 02:39:12;;;;;;;4.32;1.92;;;;;;;14.73;62.68;101570.69;4944948;28;20047;-79
2022/06/17 02:41:40;;;;;;;3.63;2.15;;;;;;;14.72;62.57;101573.41;4964485;28;20085;-79
2022/06/17 02:44:35;;;;;;;4.70;1.90;;;;;;;14.69;63.27;101571.81;4965243;28;20055;-79
2022/06/17 02:47:02;;;;;;;3.35;1.75;;;;;;;14.67;63.14;101569.22;4962648;28;20066;-79
2022/06/17 02:49:33;;;;;;;4.35;2.00;;;;;;;14.70;63.84;101573.50;4970912;28;20314;-77
2022/06/17 02:52:02;;;;;;;5.22;2.00;;;;;;;14.68;63.67;101565.66;4979310;28;20055;-80
2022/06/17 02:54:33;;;;;;;2.63;1.77;;;;;;;14.68;63.67;101557.72;4964955;28;20058;-79
2022/06/17 02:57:02;;;;;;;6.28;2.05;;;;;;;14.67;63.77;101550.69;4958953;28;20051;-80
2022/06/17 02:59:36;;;;;;;5.25;2.22;;;;;;;14.65;63.40;101551.72;4966070;28;20502;-80
2022/06/17 03:02:45;;;;;;;3.00;1.73;;;;;;;14.62;63.62;101547.47;4958501;28;20285;-78
2022/06/17 03:05:25;;;;;;;4.60;1.77;;;;;;;14.60;63.97;101545.88;4960854;28;20115;-80
2022/06/17 03:07:54;;;;;;;5.53;2.00;;;;;;;14.60;64.56;101543.22;4962063;28;20047;-79
2022/06/17 03:10:41;;;;;;;4.70;1.90;;;;;;;14.55;65.02;101543.50;4971356;28;20058;-78
2022/06/17 03:13:17;;;;;;;6.35;2.20;;;;;;;14.54;64.86;101544.41;4982144;28;20146;-79
2022/06/17 03:15:48;;;;;;;2.78;1.77;;;;;;;14.53;64.72;101561.28;4972656;28;20035;-79
2022/06/17 03:18:15;;;;;;;4.88;2.35;;;;;;;14.51;64.75;101551.72;4980837;28;20035;-78
2022/06/17 03:20:46;;;;;;;4.45;2.10;;;;;;;14.52;65.17;101553.44;4994051;28;20057;-79
2022/06/17 03:23:20;;;;;;;6.10;2.20;;;;;;;14.53;64.72;101547.16;4945936;28;20063;-79
2022/06/17 03:25:50;;;;;;;6.57;2.30;;;;;;;14.53;64.67;101548.03;4976807;28;20130;-78
2022/06/17 03:28:23;;;;;;;7.03;2.70;;;;;;;14.53;64.84;101549.81;4959137;28;20051;-78
2022/06/17 03:31:14;;;;;;;7.22;2.92;;;;;;;14.52;65.18;101548.97;4973956;28;20128;-78
2022/06/17 03:33:49;;;;;;;4.57;2.67;;;;;;;14.53;65.48;101560.41;4952084;28;20054;-80
2022/06/17 03:36:34;;;;;;;5.25;2.30;;;;;;;14.57;65.08;101561.94;4972668;28;20088;-78
2022/06/17 03:39:05;;;;;;;8.63;2.55;;;;;;;14.59;65.20;101565.34;4980296;28;20064;-78
2022/06/17 03:41:45;;;;;;;5.13;2.22;;;;;;;14.57;65.58;101560.13;4974821;28;20039;-78
2022/06/17 03:44:15;;;;;;;5.47;2.20;;;;;;;14.62;65.55;101565.16;4965547;28;20168;-78
2022/06/17 03:47:09;;;;;;;4.75;2.67;;;;;;;14.65;65.18;101565.84;4974719;28;20430;-79
2022/06/17 03:49:55;;;;;;;9.00;2.80;;;;;;;14.66;65.33;101575.47;4937315;28;20051;-79
2022/06/17 03:52:40;;;;;;;7.60;2.30;;;;;;;14.67;65.50;101574.53;4954139;28;20507;-79
2022/06/17 03:55:12;;;;;;;6.93;2.58;;;;;;;14.72;65.33;101574.25;4954563;28;20105;-79
2022/06/17 03:57:42;;;;;;;4.93;2.65;;;;;;;14.74;65.10;101580.31;4954235;28;20142;-79
2022/06/17 04:00:16;;;;;;;6.60;2.17;;;;;;;14.78;64.92;101579.19;4965613;28;20376;-78
2022/06/17 04:02:44;;;;;;;6.82;2.30;;;;;;;14.81;64.80;101578.13;4960389;28;20051;-80
2022/06/17 04:05:20;;;;;;;5.35;2.50;;;;;;;14.81;64.79;101586.94;4955725;28;20073;-81
2022/06/17 04:07:47;;;;;;;4.15;2.40;;;;;;;14.83;64.77;101581.56;4972169;28;20057;-80
2022/06/17 04:10:17;;;;;;;6.65;2.30;;;;;;;14.88;64.74;101588.28;4965144;28;20079;-80
2022/06/17 04:12:48;;;;;;;10.05;2.90;;;;;;;14.92;64.63;101591.59;4945817;28;20046;-78
2022/06/17 04:15:38;;;;;;;6.13;2.30;;;;;;;14.94;64.55;101595.00;4944821;28;20051;-79
2022/06/17 04:18:07;;;;;;;6.20;2.47;;;;;;;14.98;64.65;101598.31;4940633;28;20047;-79
2022/06/17 04:20:55;;;;;;;3.67;2.17;;;;;;;15.02;64.92;101607.78;4960169;28;21105;-80
2022/06/17 04:23:26;;;;;;;3.90;2.00;;;;;;;15.04;64.82;101608.53;4943467;28;20057;-77
2022/06/17 04:25:55;;;;;;;8.10;2.40;;;;;;;15.10;64.65;101610.81;4974071;28;20046;-78
2022/06/17 04:28:30;;;;;;;7.57;2.47;;;;;;;15.14;64.60;101604.38;4981306;28;20046;-79
2022/06/17 04:31:04;;;;;;;6.70;2.65;;;;;;;15.17;64.57;101610.34;4984187;28;20063;-79
2022/06/17 04:33:52;;;;;;;8.57;2.83;;;;;;;15.18;64.85;101606.75;4986504;28;20057;-79
2022/06/17 04:36:22;;;;;;;9.13;2.40;;;;;;;15.22;64.80;101609.19;4965139;28;20054;-79
2022/06/17 04:38:53;;;;;;;4.78;2.47;;;;;;;15.22;64.45;101614.47;4970183;28;20065;-79
2022/06/17 04:41:25;;;;;;;6.93;2.10;;;;;;;15.22;65.17;101620.66;4958035;28;20160;-79
2022/06/17 04:43:55;;;;;;;6.55;2.90;;;;;;;15.16;65.13;101616.56;4941043;28;20047;-79
2022/06/17 04:46:34;;;;;;;9.00;2.38;;;;;;;15.15;65.49;101620.19;4959526;28;20146;-79
2022/06/17 04:49:04;;;;;;;6.15;3.28;;;;;;;15.17;65.53;101613.00;4977202;28;20060;-80
2022/06/17 04:51:33;;;;;;;6.13;2.70;;;;;;;15.26;65.46;101623.97;4965433;28;20069;-79
2022/06/17 04:54:04;;;;;;;7.22;2.67;;;;;;;15.29;65.24;101621.97;4978353;28;20062;-80
2022/06/17 04:56:34;;;;;;;11.48;3.38;;;;;;;15.36;65.32;101625.13;4937229;28;20102;-79
2022/06/17 04:59:34;;;;;;;11.20;3.70;;;;;;;15.34;65.58;101624.34;4958782;28;20165;-80
2022/06/17 05:02:05;;;;;;;11.02;2.80;;;;;;;15.47;65.44;101637.69;4951397;28;20123;-81
2022/06/17 05:04:32;;;;;;;7.18;2.97;;;;;;;15.57;64.98;101642.31;4942381;28;20054;-80
2022/06/17 05:07:00;;;;;;;5.70;2.45;;;;;;;15.62;65.04;101634.03;4966580;28;20078;-80
2022/06/17 05:09:33;;;;;;;8.57;2.75;;;;;;;15.68;64.70;101629.25;4953117;28;20523;-79
2022/06/17 05:12:04;;;;;;;9.10;3.33;;;;;;;15.79;64.74;101630.34;4958474;28;20070;-81
2022/06/17 05:15:01;;;;;;;8.95;2.75;;;;;;;15.83;64.45;101631.84;4943994;28;20051;-80
2022/06/17 05:17:29;;;;;;;6.20;2.50;;;;;;;15.91;64.50;101624.25;4973548;28;20694;-78
2022/06/17 05:19:56;;;;;;;6.15;2.75;;;;;;;15.95;64.30;101620.44;4938812;28;20047;-79
2022/06/17 05:22:31;;;;;;;7.22;2.90;;;;;;;16.06;64.21;101625.88;4971677;28;20064;-78
2022/06/17 05:25:02;;;;;;;8.70;3.03;;;;;;;16.12;63.68;101632.59;4966681;28;20063;-78
2022/06/17 05:27:31;;;;;;;8.55;2.90;;;;;;;16.19;63.36;101623.28;4942661;28;20383;-79
2022/06/17 05:29:58;;;;;;;13.98;3.63;;;;;;;16.27;63.13;101622.75;4968647;28;20046;-77
2022/06/17 05:32:25;;;;;;;7.35;2.97;;;;;;;16.37;63.13;101622.03;4958380;28;20053;-78
2022/06/17 05:34:53;;;;;;;9.20;3.25;;;;;;;16.51;62.83;101638.84;4938967;29;20445;-79
2022/06/17 05:37:20;;;;;;;9.57;3.03;;;;;;;16.64;62.39;101632.59;4983612;28;20243;-80
2022/06/17 05:40:05;;;;;;;10.65;3.78;;;;;;;16.76;61.98;101627.44;4961836;28;20051;-79
2022/06/17 05:42:37;;;;;;;6.60;2.78;;;;;;;16.68;62.16;101628.78;4958939;28;20078;-79
2022/06/17 05:45:05;;;;;;;4.93;2.72;;;;;;;16.66;61.77;101624.50;4959603;28;20456;-79
2022/06/17 05:47:32;;;;;;;8.48;3.30;;;;;;;16.67;62.28;101624.41;4962734;28;20062;-81
2022/06/17 05:49:59;;;;;;;6.10;2.85;;;;;;;16.76;62.25;101624.78;4968031;28;20054;-78
2022/06/17 05:52:29;;;;;;;10.90;3.60;;;;;;;16.78;62.14;101625.50;4986814;28;20055;-79
2022/06/17 05:55:01;;;;;;;7.35;3.80;;;;;;;16.79;62.00;101629.88;4972537;28;20170;-80
2022/06/17 05:57:28;;;;;;;11.77;3.33;;;;;;;16.85;61.94;101632.13;4957243;28;20115;-80
2022/06/17 05:59:55;;;;;;;11.30;4.05;;;;;;;16.92;61.65;101630.72;4945663;28;20043;-79
2022/06/17 06:02:22;;;;;;;11.85;3.47;;;;;;;16.98;61.33;101625.00;4945793;28;20063;-80
2022/06/17 06:04:50;;;;;;;14.13;3.97;;;;;;;16.99;60.45;101615.19;4958807;28;20055;-78
2022/06/17 06:07:17;;;;;;;8.45;3.35;;;;;;;17.07;60.42;101620.84;4979459;28;20088;-79
2022/06/17 06:09:44;;;;;;;6.38;3.00;;;;;;;17.14;60.30;101624.75;4977414;28;20041;-80
2022/06/17 06:12:11;;;;;;;13.50;3.45;;;;;;;17.28;59.85;101626.44;4975121;28;20051;-79
2022/06/17 06:14:40;;;;;;;9.02;3.28;;;;;;;17.41;59.11;101624.59;4973684;28;20046;-78
2022/06/17 06:17:10;;;;;;;8.68;2.92;;;;;;;17.56;58.59;101631.50;4975123;28;20042;-80
2022/06/17 06:19:38;;;;;;;16.48;3.28;;;;;;;17.74;58.40;101634.63;4964445;28;20466;-80
2022/06/17 06:22:05;;;;;;;16.15;4.40;;;;;;;17.82;58.37;101631.41;4963385;28;20054;-79
2022/06/17 06:24:32;;;;;;;8.07;3.15;;;;;;;17.78;58.19;101640.59;4968210;28;20047;-79
2022/06/17 06:27:00;;;;;;;9.95;3.78;;;;;;;17.81;58.08;101646.56;4986321;28;20061;-79
2022/06/17 06:29:27;;;;;;;7.50;3.40;;;;;;;17.85;58.25;101650.69;4977160;28;20316;-80
2022/06/17 06:31:54;;;;;;;7.18;3.33;;;;;;;17.86;57.30;101654.22;4973317;28;20069;-78
2022/06/17 06:34:22;;;;;;;11.65;3.17;;;;;;;17.83;57.21;101652.63;4956353;28;20466;-79
2022/06/17 06:36:50;;;;;;;7.07;3.20;;;;;;;17.92;57.22;101657.28;4978590;28;20080;-79
2022/06/17 06:39:17;;;;;;;5.35;3.08;;;;;;;17.83;57.37;101657.09;4967766;28;20114;-79
2022/06/17 06:41:44;;;;;;;10.32;3.58;;;;;;;18.00;57.20;101662.03;4978142;28;20065;-79
2022/06/17 06:44:11;;;;;;;11.00;3.60;;;;;;;18.23;56.48;101658.50;4961254;28;20047;-80
2022/06/17 06:46:39;;;;;;;14.00;3.20;;;;;;;18.43;56.13;101661.50;4958138;28;20165;-80
2022/06/17 06:52:37;;;;;;;9.13;3.33;;;;;;;18.42;55.52;101671.31;4987540;28;20580;-79
2022/06/17 06:55:10;;;;;;;9.43;3.33;;;;;;;18.45;55.75;101670.22;4987403;28;20054;-79
2022/06/17 06:57:58;;;;;;;9.82;2.70;;;;;;;18.55;54.92;101665.91;4979788;28;20373;-81
2022/06/17 07:00:33;;;;;;;7.05;3.20;;;;;;;18.42;55.14;101662.47;4984875;28;20073;-81
2022/06/17 07:03:01;;;;;;;;;;;;;;;18.70;55.04;101663.94;4966639;28;20085;-80
2022/06/17 07:05:29;;;;;;;7.15;2.97;;;;;;;18.80;54.32;101664.91;4972715;28;20088;-79
2022/06/17 07:07:56;;;;;;;9.05;2.75;;;;;;;18.88;53.90;101672.34;4948304;28;20146;-77
2022/06/17 07:10:27;;;;;;;13.52;3.10;;;;;;;19.05;53.42;101668.31;4990618;28;20055;-80
2022/06/17 07:12:55;;;;;;;7.10;2.70;;;;;;;19.12;53.00;101675.75;4958649;28;20061;-79
2022/06/17 07:15:23;;;;;;;6.38;2.53;;;;;;;19.26;52.49;101681.81;4980541;28;20074;-78
2022/06/17 07:18:03;;;;;;;8.82;2.50;;;;;;;19.28;52.15;101679.91;4966534;28;20541;-78
2022/06/17 07:20:42;;;;;;;7.63;2.33;;;;;;;19.32;52.52;101679.53;4969070;28;20053;-80
2022/06/17 07:23:19;;;;;;;8.75;2.83;;;;;;;19.39;52.33;101671.88;4969316;28;20042;-79
2022/06/17 07:25:47;;;;;;;9.85;2.53;;;;;;;19.34;52.14;101687.41;4948928;28;20267;-78
2022/06/17 07:28:21;;;;;;;7.38;3.42;;;;;;;19.33;52.08;101681.22;4963947;28;20058;-80
2022/06/17 07:30:50;;;;;;;14.82;3.10;;;;;;;19.41;51.84;101675.28;4967647;28;20160;-84
2022/06/17 07:33:20;;;;;;;8.23;2.65;;;;;;;19.37;51.31;101692.53;4975794;28;20053;-81
2022/06/17 07:35:48;;;;;;;5.38;3.08;;;;;;;19.32;51.58;101687.53;4968597;28;20056;-81
2022/06/17 07:41:06;;;;;;;8.98;3.00;;;;;;;19.48;51.32;101685.34;4974276;28;20117;-79
2022/06/17 07:43:34;;;;;;;6.95;2.50;;;;;;;19.53;51.20;101698.31;4979661;28;20063;-79
2022/06/17 07:46:02;;;;;;;13.27;2.42;;;;;;;19.61;50.70;101695.94;4982329;28;20192;-83
2022/06/17 07:48:30;;;;;;;7.20;2.58;;;;;;;19.60;50.80;101696.03;4983930;28;20053;-81
2022/06/17 07:51:00;;;;;;;4.82;2.30;;;;;;;19.62;50.73;101702.13;4981347;28;20137;-81
2022/06/17 07:53:29;;;;;;;4.38;2.60;;;;;;;19.63;50.04;101701.13;4948333;28;20065;-80
2022/06/17 07:56:02;;;;;;;13.52;2.20;;;;;;;19.79;50.17;101711.47;4950326;28;20055;-77
2022/06/17 07:58:30;;;;;;;7.13;2.78;;;;;;;19.88;49.53;101705.38;4966933;28;20054;-76
2022/06/17 08:00:57;;;;;;;5.78;2.33;;;;;;;19.83;49.71;101710.25;4976681;28;20057;-78
2022/06/17 08:03:25;;;;;;;4.47;2.05;;;;;;;19.88;49.54;101705.38;4973053;28;20054;-78
2022/06/17 08:05:54;;;;;;;8.48;2.60;;;;;;;19.94;49.34;101704.84;4963767;28;20118;-77
2022/06/17 08:08:24;;;;;;;7.00;2.55;;;;;;;20.05;49.37;101701.34;4951881;28;20058;-79
2022/06/17 08:10:54;;;;;;;10.07;2.22;;;;;;;20.24;48.69;101707.69;4967882;28;20051;-79
2022/06/17 08:13:22;;;;;;;6.00;2.00;;;;;;;20.28;48.09;101692.25;4966198;28;20063;-78
2022/06/17 08:15:53;;;;;;;5.40;2.50;;;;;;;20.31;48.06;101699.16;4964127;28;20114;-75
2022/06/17 08:18:21;;;;;;;8.20;2.63;;;;;;;20.53;47.89;101706.28;4969352;28;20062;-76
2022/06/17 08:20:48;;;;;;;11.52;2.08;;;;;;;20.42;47.40;101704.47;4965315;28;20046;-77
2022/06/17 08:23:16;;;;;;;11.43;2.83;;;;;;;20.44;47.13;101703.38;4988656;28;20106;-76
2022/06/17 08:25:44;;;;;;;9.75;2.30;;;;;;;20.48;46.46;101698.63;4972003;28;20034;-80
2022/06/17 08:28:13;;;;;;;5.90;2.13;;;;;;;20.55;46.30;101704.34;4957313;28;20055;-79
2022/06/17 08:30:43;;;;;;;5.78;2.50;;;;;;;20.76;45.83;101718.59;4976122;28;20046;-76
2022/06/17 08:33:11;;;;;;;12.10;1.75;;;;;;;20.70;45.20;101714.56;4963743;28;20471;-79
2022/06/17 08:36:07;;;;;;;11.50;2.63;;;;;;;20.73;44.35;101706.31;4977633;28;20109;-78
2022/06/17 08:38:38;;;;;;;5.55;1.80;;;;;;;20.79;44.39;101712.94;4949834;28;20383;-78
2022/06/17 08:41:18;;;;;;;6.45;1.75;;;;;;;20.80;43.91;101713.81;4960845;28;20201;-78
2022/06/17 08:44:10;;;;;;;6.07;1.77;;;;;;;20.93;43.81;101711.78;4979778;28;20146;-79
2022/06/17 08:46:52;;;;;;;9.48;1.80;;;;;;;21.05;43.68;101708.06;4973861;28;20051;-80
2022/06/17 08:49:27;;;;;;;4.40;1.58;;;;;;;21.06;42.42;101709.75;4978848;28;20053;-80
2022/06/17 08:52:06;;;;;;;5.22;1.70;;;;;;;20.98;41.99;101706.88;4982099;28;20097;-80
2022/06/17 08:54:51;;;;;;;7.35;1.50;;;;;;;20.92;42.30;101708.25;4968594;28;20046;-78
2022/06/17 08:57:19;;;;;;;;;;;;;;;21.06;42.49;101700.88;4968866;28;20089;-79
2022/06/17 09:00:11;;;;;;;4.28;1.58;;;;;;;21.26;42.16;101707.19;4975808;28;19930;-79
2022/06/17 09:02:47;;;;;;;6.18;1.95;;;;;;;21.33;41.87;101693.16;4952211;28;20054;-80
2022/06/17 09:05:36;;;;;;;8.88;2.00;;;;;;;21.24;41.35;101693.91;4969720;28;20059;-81
2022/06/17 09:08:14;;;;;;;7.53;2.03;;;;;;;21.43;41.06;101680.66;4956078;28;20154;-80
2022/06/17 09:10:59;;;;;;;5.15;2.22;;;;;;;21.64;41.64;101675.22;4973044;28;20054;-80
2022/06/17 09:13:38;;;;;;;6.68;1.73;;;;;;;21.91;40.64;101690.66;4967150;28;20057;-78
2022/06/17 09:16:14;;;;;;;1.98;1.10;;;;;;;21.87;39.13;101686.53;4941595;28;20385;-80
2022/06/17 09:18:45;;;;;;;6.65;1.20;;;;;;;21.90;39.17;101685.44;4957828;28;20098;-81
2022/06/17 09:21:29;;;;;;;4.72;1.30;;;;;;;22.15;38.66;101687.59;4942256;28;20046;-80
2022/06/17 09:24:02;;;;;;;8.80;1.50;;;;;;;22.19;38.85;101678.28;4960972;28;20063;-78
2022/06/17 09:26:35;;;;;;;8.88;1.95;;;;;;;22.26;38.81;101672.38;4984632;28;20313;-77
2022/06/17 09:29:27;;;;;;;7.18;1.50;;;;;;;22.20;38.32;101680.00;4959891;28;20058;-79
2022/06/17 09:32:11;;;;;;;11.00;1.60;;;;;;;22.23;38.33;101678.88;4938656;28;20050;-79
2022/06/17 09:35:17;;;;;;;5.63;1.40;;;;;;;22.31;37.67;101678.16;4955364;28;20141;-80
2022/06/17 09:37:55;;;;;;;2.27;1.20;;;;;;;22.35;37.48;101680.44;4959658;28;20588;-78
2022/06/17 09:40:35;;;;;;;2.50;0.98;;;;;;;22.24;37.06;101669.81;4964885;28;20529;-78
2022/06/17 09:43:09;;;;;;;2.25;1.00;;;;;;;22.26;37.17;101675.91;4991368;28;20035;-76
2022/06/17 09:45:53;;;;;;;5.22;1.40;;;;;;;22.28;37.12;101671.25;4982853;28;20103;-77
2022/06/17 09:48:28;;;;;;;4.38;1.42;;;;;;;22.33;37.27;101682.38;4965623;28;20074;-79
2022/06/17 09:51:06;;;;;;;10.73;1.42;;;;;;;22.57;37.64;101679.28;4962963;28;20573;-82
2022/06/17 09:53:50;;;;;;;2.78;1.27;;;;;;;22.69;37.13;101674.59;4949848;28;20046;-81
2022/06/17 09:56:25;;;;;;;7.13;1.33;;;;;;;22.62;37.10;101658.22;4957895;28;20057;-81
2022/06/17 09:59:07;;;;;;;2.58;1.23;;;;;;;22.57;37.30;101663.19;4977775;28;20043;-77
2022/06/17 10:01:34;;;;;;;5.68;1.30;;;;;;;22.59;37.68;101663.88;4945857;28;20141;-80
2022/06/17 10:04:07;;;;;;;5.40;1.58;;;;;;;22.81;37.27;101651.13;4959573;28;20055;-80
2022/06/17 10:06:49;;;;;;;4.47;1.23;;;;;;;23.04;36.32;101655.19;4957213;28;20283;-78
2022/06/17 10:09:27;;;;;;;1.65;1.10;;;;;;;23.02;35.83;101654.50;4977298;28;20050;-79
2022/06/17 10:12:21;;;;;;;9.55;1.25;;;;;;;23.24;35.81;101654.13;4939155;28;20440;-81
2022/06/17 10:15:10;;;;;;;3.47;1.17;;;;;;;23.54;34.92;101640.53;4973360;28;20057;-81
2022/06/17 10:21:18;;;;;;;2.45;1.10;;;;;;;23.44;34.51;101638.75;4983216;28;20118;-82
2022/06/17 10:23:47;;;;;;;;;;;;;;;23.47;34.09;101651.91;4981311;28;20132;-79
2022/06/17 10:26:26;;;;;;;6.20;1.17;;;;;;;23.50;33.81;101651.59;4983352;28;19922;-81
2022/06/17 10:29:32;;;;;;;4.40;1.13;;;;;;;23.60;34.13;101654.25;4963733;28;20061;-80
2022/06/17 10:31:59;;;;;;;2.80;1.13;;;;;;;23.51;34.26;101652.44;4956784;28;20051;-79
2022/06/17 10:34:51;;;;;;;4.75;1.13;;;;;;;23.67;33.74;101655.34;4948886;28;20121;-80
2022/06/17 10:37:18;;;;;;;3.33;1.25;;;;;;;23.86;33.79;101650.84;4961671;28;20058;-81
2022/06/17 10:40:08;;;;;;;4.18;1.40;;;;;;;23.97;33.85;101647.94;4943714;28;20062;-78
2022/06/17 10:42:35;;;;;;;2.15;1.23;;;;;;;24.14;34.05;101648.94;4966946;28;20055;-79
2022/06/17 10:45:03;;;;;;;1.98;1.02;;;;;;;24.35;33.66;101640.53;4970671;28;20073;-79
2022/06/17 10:47:34;;;;;;;2.22;1.25;;;;;;;24.29;33.84;101642.00;4964482;28;20046;-79
2022/06/17 10:50:05;;;;;;;4.72;1.58;;;;;;;24.45;33.55;101642.19;4965885;28;20063;-80
2022/06/17 10:52:37;;;;;;;4.05;1.45;;;;;;;24.50;33.25;101639.88;4955904;28;20173;-77
2022/06/17 10:55:12;;;;;;;2.92;1.20;;;;;;;24.70;33.50;101636.97;4981699;28;20065;-76
2022/06/17 10:58:12;;;;;;;4.88;1.38;;;;;;;24.98;32.40;101632.25;4965947;28;20051;-75
2022/06/17 11:00:53;;;;;;;4.38;1.40;;;;;;;24.94;32.70;101631.72;4977394;28;20070;-76
2022/06/17 11:03:38;;;;;;;1.42;1.15;;;;;;;24.80;32.75;101635.00;4987624;28;20118;-77
2022/06/17 11:06:14;;;;;;;5.47;0.90;;;;;;;24.95;33.07;101629.91;4970960;28;20062;-80
2022/06/17 11:09:00;;;;;;;3.67;1.33;;;;;;;25.04;32.32;101620.84;4972416;28;20047;-80
2022/06/17 11:14:20;;;;;;;2.90;1.40;;;;;;;25.35;32.23;101609.53;4963653;28;20070;-77
2022/06/17 11:16:48;;;;;;;3.53;1.33;;;;;;;25.55;31.96;101616.34;4950684;28;20066;-80
2022/06/17 11:19:17;;;;;;;4.22;1.27;;;;;;;25.75;31.44;101612.34;4972491;28;20093;-81
2022/06/17 11:21:49;;;;;;;3.72;1.13;;;;;;;25.84;31.66;101610.53;4955966;28;20077;-79
2022/06/17 11:24:30;;;;;;;3.33;1.30;;;;;;;25.47;31.48;101606.38;4941990;28;20035;-79
2022/06/17 11:27:36;;;;;;;6.00;1.48;;;;;;;25.67;32.82;101593.47;4958995;28;20051;-79
2022/06/17 11:30:26;;;;;;;5.10;1.38;;;;;;;26.18;31.93;101596.91;4952863;28;21052;-81
2022/06/17 11:32:56;;;;;;;3.35;1.30;;;;;;;26.62;31.62;101599.28;4970101;28;20043;-80
2022/06/17 11:35:32;;;;;;;5.30;1.30;;;;;;;26.46;30.14;101615.50;4980561;28;20038;-77
2022/06/17 11:38:02;;;;;;;5.65;1.23;;;;;;;26.46;30.31;101599.28;4978640;28;20089;-78
2022/06/17 11:40:35;;;;;;;2.20;0.75;;;;;;;26.22;29.62;101600.13;4964482;28;20165;-77
2022/06/17 11:43:06;;;;;;;7.20;0.98;;;;;;;26.32;29.53;101602.66;4973335;28;20051;-81
2022/06/17 11:45:36;;;;;;;4.72;1.25;;;;;;;26.38;29.17;101597.41;4956958;28;20054;-80
2022/06/17 11:48:18;;;;;;;2.45;1.27;;;;;;;26.39;29.64;101598.28;4942876;28;20153;-81
2022/06/17 11:51:06;;;;;;;3.72;1.30;;;;;;;26.83;29.93;101595.16;4926284;28;20114;-79
2022/06/17 11:53:49;;;;;;;2.85;1.23;;;;;;;27.04;28.75;101592.72;4951800;28;20054;-79
2022/06/17 11:56:35;;;;;;;2.25;1.08;;;;;;;27.40;28.74;101598.50;4974777;28;20057;-81
2022/06/17 11:59:15;;;;;;;3.10;0.93;;;;;;;27.66;28.55;101591.94;4945170;28;20058;-81
2022/06/17 12:01:49;;;;;;;5.75;1.20;;;;;;;27.81;27.56;101590.16;4956316;28;20055;-82
2022/06/17 12:04:38;;;;;;;3.85;1.00;;;;;;;27.59;27.23;101590.97;4973747;28;20046;-81
2022/06/17 12:07:29;;;;;;;2.03;1.10;;;;;;;27.34;28.15;101593.81;4953651;28;20058;-80
2022/06/17 12:10:03;;;;;;;2.13;1.08;;;;;;;27.39;27.96;101593.28;4958341;28;20179;-78
2022/06/17 12:12:31;;;;;;;1.58;0.95;;;;;;;27.56;27.75;101584.06;4961381;28;20046;-79